COOLWX HOME

EXTREME HOME

OTHER COOLWX PAGES
    Coolwx Hit Images
    Extreme Weather
    Global Forecasts
    Hourly Model Forecasts
    Mesoscale Analysis
    Obs. Weather Database
    Offshore Weather Data
    Precipitation Type
    Record Breakers
    U.S. Weather Statistics


EXTREME WX CATEGORIES
   CITIES & VALUES:
       Temperature
       Dewpoint
       Heat Index
       Wind
       Wind Chill
       Pressure
       Pressure Change
       Precip Type/Intensity
       Precip Amount
       Thunderstorm
       Blizzard
       Visibility
       Astronomical
       Other
       Multiple
       Unknown
   CITIES & FULL REPORTS:
       Temperature
       Dewpoint
       Heat Index
       Wind
       Wind Chill
       Pressure
       Pressure Change
       Precip Type/Intensity
       Precip Amount
       Thunderstorm
       Blizzard
       Visibility
       Astronomical
       Other
       Multiple
   USA & WORLD PLOTS:
       Temperature
       Dewpoint
       Wind
       Wind Chill & Heat Index
       Pressure
       Pressure Change
       Precip Type/Intensity
       Precip Amount
       Thunderstorm
       Blizzard
       Visibility
       Astronomical
       Other
       Unknown
   REPEAT OFFENDERS:
       Today
       Yesterday
       This month
       This year
       Since 2007
   RSS:
       Feed
   ARCHIVE:
       2024061708
       2024061706
       2024061703
       2024061700
       2024061621
       2024061618
       2024061615
       2024061612
       2024061609
       2024061606
       2024061603
       2024061600
       2024061521
       2024061518
       2024061515
       2024061512
       2024061509
       2024061506
       2024061503
       2024061500
       2024061421
       2024061418
       2024061415
       2024061412

CONTACT
       Bob Hart
       (rhart at fsu.edu)

Extreme & Weird Weather of the World - Archive for 2024060918
Currently using 37158 observations from 5240 unique global stations over the past 3 hours.
Last Updated: Sun Jun 9 18:46:36 UTC 2024



1 station reporting temperature -55°C or colder

0 stations reporting temperature -50°C to -54°C

0 stations reporting temperature -45°C to -49°C

0 stations reporting temperature -40°C to -44°C

0 stations reporting temperature 55°C or warmer

1 station reporting temperature 50°C to 54°C

8 stations reporting temperature 45°C to 49°C

56 stations reporting temperature 40°C to 44°C


7 stations reporting dewpoint 30°C or greater

25 stations reporting dewpoint 28-29°C

195 stations reporting dewpoint 26-27°C


0 stations reporting wind gusts 70kt or stronger

1 station reporting wind gusts 60-69kt

2 stations reporting wind gusts 50-59kt

16 stations reporting wind gusts 40-49kt


1 station reporting (sustained) wind chill of -55°C or colder

0 stations reporting (sustained) wind chill of -50°C to -54°C

0 stations reporting (sustained) wind chill of -45°C to -49°C

1 station reporting (sustained) wind chill of -40°C to -44°C


1 station reporting heat index of 55°C or hotter

5 stations reporting heat index of 50°C to 54°C

26 stations reporting heat index of 45°C to 49°C

184 stations reporting heat index of 40°C to 44°C


1 station reporting sea level pressure < 950mb

  • NZCM: Williams Field, Antarctica [949.6mb, 28.04in]    
    NZCM 091841Z AUTO 32024G32KT 9999 OVC060 M08/M19 A2803 RMK AO2 PK WND 32033/1823 SNE1841 SLP496 T10831188 $
1 station reporting sea level pressure 950mb - 959mb

  • NZCM: Williams Field, Antarctica [950.5mb, 28.06in]    
    NZCM 091755Z AUTO 32023G34KT 9999 -SN OVC049 M09/M17 A2805 RMK AO2 PK WND 32034/1751 SNB1724 SLP505 T10891168 11086 21108 56033 $
    NZCM 091724Z AUTO 32025G31KT 9999 -SN OVC050 M09/M17 A2806 RMK AO2 PK WND 32032/1657 SNB1724 SLP507 T10891167 $
    NZCM 091655Z AUTO 32023G31KT 9999 OVC049 M09/M17 A2808 RMK AO2 PK WND 31033/1642 SLP512 T10891173 $
    NZCM 091555Z AUTO 32021G27KT 9999 OVC060 M09/M17 A2811 RMK AO2 PK WND 30027/1552 SLP523 T10881171 $
    NZCM 091455Z AUTO 32016G22KT 9999 OVC070 M10/M13 A2815 RMK AO2 SNE1440 SLP539 T10991128 58047 $
0 stations reporting sea level pressure 960mb - 969mb

2 stations reporting sea level pressure 970mb - 979mb

  • PACX: UNKNOWN, [974.7mb, 28.78in]    
    PACX 091756Z AUTO 07011G18KT 10SM CLR 21/05 A2988 RMK AO2 SLP747 T02060050 10211 20128 58013
    PACX 091656Z AUTO VRB05KT 10SM CLR 19/05 A2990 RMK AO2 SLP753 T01940050
    PACX 091556Z AUTO 05005KT 10SM CLR 18/04 A2992 RMK AO2 SLP759 T01830044
    PACX 091456Z AUTO 05008G14KT 10SM CLR 16/03 A2992 RMK AO2 SLP760 T01560028 58003
  • PFTO: UNKNOWN, [973.2mb, 28.73in]    
    PFTO 091756Z AUTO 00000KT 10SM CLR 20/M02 A2979 RMK AO2 SLP732 T02001017 10200 20078 58002 $
    PFTO 091656Z AUTO VRB06KT 10SM CLR 19/M01 A2980 RMK AO2 SLP733 T01941011 $
    PFTO 091556Z AUTO VRB03KT 10SM CLR 17/M01 A2980 RMK AO2 SLP734 T01671006 $
    PFTO 091456Z AUTO 14005KT 10SM CLR 16/00 A2980 RMK AO2 SLP734 T01560000 50002 $
15 stations reporting sea level pressure 980mb - 989mb

  • ENGM: Oslo / Gardermoen, Norway [988mb, 29.17in]    
    ENGM 091820Z 04005KT 010V070 9999 -SHRA FEW018CB BKN035 09/07 Q0988 NOSIG
    ENGM 091750Z 06006KT 010V110 9999 -SHRA FEW008 FEW019CB BKN020 09/07 Q0988
    ENGM 091720Z 10005KT 060V170 9999 -SHRA FEW034CB BKN046 10/06 Q0988
    ENGM 091650Z 14007KT 110V170 9999 VCSH SCT030CB BKN044 10/06 Q0988
    ENGM 091620Z 13008KT 100V160 9999 -SHRA FEW013CB BKN040 10/06 Q0988
    ENGM 091550Z 14009KT 9999 -SHRA FEW010CB SCT035 BKN057 10/05 Q0988
    ENGM 091520Z 14009KT 9999 VCSH FEW015 BKN060 11/04 Q0988
    ENGM 091450Z 17009KT 9999 -SHRA SCT015 BKN070 10/05 Q0988
  • ENKB: Kristiansund / Kvernberget, Norway [989mb, 29.20in]    
    ENKB 091620Z 05019KT 9999 FEW015 BKN046 BKN110 14/07 Q0989 RMK WIND 745FT 05028KT
    ENKB 091550Z 05018KT 9999 FEW012 BKN044 14/07 Q0989 RMK WIND 745FT 05028KT
    ENKB 091520Z 06014KT 040V100 9999 FEW020 BKN033 14/07 Q0989 RMK WIND 745FT 05023KT
    ENKB 091450Z VRB02KT 9999 FEW015 BKN031 12/09 Q0989 RMK WIND 745FT VRB06G21KT
  • ENML: Molde / Aro, Norway [989mb, 29.20in]    
    ENML 091450Z 18003KT 140V210 9999 -SHRA FEW006 BKN049 12/10 Q0989
  • ENRO: Roros Lufthavn, Norway [987mb, 29.14in]    
    ENRO 091820Z AUTO 01007KT 340V040 9999 -RA SCT019/// BKN031/// OVC094/// 07/04 Q0988
    ENRO 091750Z AUTO VRB02KT 9999 FEW042/// OVC061/// 09/03 Q0987
    ENRO 091720Z AUTO 36003KT 9999 OVC062/// 09/03 Q0987
    ENRO 091650Z VRB02KT 9999 FEW015 BKN045 09/03 Q0987
    ENRO 091620Z 33003KT 290V020 9999 BKN030 09/03 Q0987
    ENRO 091550Z 32003KT 290V350 9999 SCT025 BKN035 09/04 Q0987
    ENRO 091520Z 05006KT 010V080 9999 SCT025 BKN035 08/04 Q0988
    ENRO 091450Z 03006KT 340V080 9999 SCT020 BKN035 08/04 Q0988
  • ENRY: Rygge, Norway [989mb, 29.20in]    
    ENRY 091820Z AUTO 31004KT 280V340 9999 -RA FEW035/// SCT046/// BKN055/// 10/// Q0989
    ENRY 091750Z AUTO 30004KT 9999 -DZ FEW030/// SCT039/// BKN059/// 10/07 Q0989 RERA
  • ENSG: Sogndal / Haukasen, Norway [989mb, 29.20in]    
    ENSG 091820Z 22004KT 190V250 9999 FEW010 SCT025 BKN055 07/05 Q0989 RMK WIND 3806FT 28013KT
    ENSG 091750Z 23005KT 9999 FEW010 SCT025 BKN042 07/04 Q0989 RMK WIND 3806FT 28014KT
    ENSG 091720Z 22005KT 9999 VCSH FEW005 SCT025 BKN040 07/04 Q0989 RMK WIND 3806FT 28013KT
    ENSG 091650Z 24007KT 9999 -RA FEW005 SCT025 BKN040 07/04 Q0989 RMK WIND 3806FT 27013KT
    ENSG 091620Z 22004KT 160V240 9999 -SHRA FEW005 SCT025 BKN035 07/04 Q0989 RMK WIND 3806FT 28011KT
    ENSG 091550Z 23005KT 9999 -SHRA FEW/// SCT025 BKN040 07/04 Q0989 RMK WIND 3806FT 28010KT
    ENSG 091520Z 23005KT 9999 FEW/// SCT025 BKN050 07/04 Q0989 RMK WIND 3806FT 28009KT
    ENSG 091450Z 24006KT 9999 FEW/// SCT025 BKN050 07/04 Q0989 RMK WIND 3806FT 28010KT
  • ENTO: Torp, Norway [989mb, 29.20in]    
    ENTO 091820Z 24009KT 9999 DZ FEW037 BKN048 12/05 Q0989
    ENTO 091750Z 21008KT 9999 -SHRA FEW025CB SCT050 13/06 Q0989
    ENTO 091720Z 20010KT 9999 VCSH FEW025CB SCT050 13/06 Q0989
  • ENVA: Trondheim / Vaernes, Norway [989mb, 29.20in]    
    ENVA 091620Z 06010KT 020V090 9999 FEW040 SCT050 BKN060 13/06 Q0989 RMK WIND 670FT 06017G28KT
    ENVA 091550Z 06012KT 020V090 9999 -RA SCT040 BKN055 14/06 Q0989 RMK WIND 670FT 08013KT
    ENVA 091520Z 06010KT 010V090 9999 SCT040 BKN050 14/06 Q0989 RMK WIND 670FT 07014KT
    ENVA 091450Z 08010KT 020V110 9999 SCT045 BKN100 14/07 Q0989 RMK WIND 670FT 08011KT
  • ESKM: Siljan / Mora, Sweden [989mb, 29.20in]    
    ESKM 091820Z AUTO 19006KT 150V240 9999 NCD 10/05 Q0989
    ESKM 091750Z AUTO 19007KT 160V220 9999 NCD 11/04 Q0989
    ESKM 091720Z AUTO 21007KT 170V260 9999 NCD 11/04 Q0989
    ESKM 091650Z AUTO 21010KT 180V250 9999 FEW034/// 11/03 Q0989
    ESKM 091620Z AUTO 20009KT 170V240 9999 SCT034/// BKN086/// 12/04 Q0989
    ESKM 091550Z AUTO 20008KT 150V240 9999 SCT036/// 12/04 Q0989
    ESKM 091520Z AUTO 18009KT 150V220 9999 SCT033/// BKN070/// 12/04 Q0989
    ESKM 091450Z AUTO 20007KT 150V240 9999 FEW024/// SCT041/// BKN090/// 12/06 Q0989
  • ESKS: Strangnas AB, Sweden [988mb, 29.17in]    
    ESKS 091820Z AUTO 15007KT 9999 FEW026/// SCT031/// 08/04 Q0988
    ESKS 091750Z AUTO 18008KT 150V210 9999 SCT028/// BKN050/// BKN058/// 09/04 Q0988 RERA RESHRA
    ESKS 091720Z AUTO 14013KT 3800 -RA FEW014/// OVC030/// 08/04 Q0988 RERA
    ESKS 091650Z AUTO 18006KT 9999 FEW030/// 09/03 Q0988
    ESKS 091620Z AUTO 18006KT 160V220 9999 FEW029/// 10/03 Q0988
    ESKS 091550Z AUTO 14006KT 100V160 9999 FEW061/// SCT180/// 09/03 Q0988
    ESKS 091520Z AUTO 12008KT 9999 FEW079/// SCT130/// BKN180/// 08/04 Q0988 RERA
    ESKS 091450Z AUTO 12007KT 9999 -RA OVC011/// 07/05 Q0989 RERA RESHRA
  • ESND: Sveg Airport, Sweden [988mb, 29.17in]    
    ESND 091820Z AUTO 28004KT 250V350 9999 -RA FEW017/// SCT026/// BKN055/// 07/05 Q0988
    ESND 091750Z AUTO 25009KT 9999 SCT051/// BKN063/// BKN100/// 08/05 Q0988
    ESND 091720Z AUTO 24012KT 210V270 9999 FEW036/// BKN054/// OVC064/// 08/04 Q0988
    ESND 091650Z AUTO 21006KT 150V240 9999 FEW038/// BKN072/// 11/04 Q0988
    ESND 091620Z VRB03KT CAVOK 11/03 Q0988
    ESND 091550Z VRB03KT CAVOK 11/04 Q0988
    ESND 091520Z VRB02KT CAVOK 11/03 Q0988
    ESND 091450Z AUTO VRB03KT 9999 FEW058/// SCT140/// 10/03 Q0988
  • ESNK: Kramfors Flygplats, Sweden [989mb, 29.20in]    
    ESNK 091520Z 18007KT 9999 FEW019 SCT051 BKN072 11/08 Q0989
    ESNK 091450Z 18008KT 9999 FEW014 BKN051 BKN062 11/08 Q0989
  • ESNN: Sundsvall-Harnosand Flygplats, Sweden [989mb, 29.20in]    
    ESNN 091520Z AUTO 15013KT 9999 SCT055/// BKN100/// 11/07 Q0989
    ESNN 091450Z 11008KT 9999 -DZ SCT019 BKN023 BKN033 10/08 Q0989
  • ESNZ: Ostersund Froson, Sweden [986mb, 29.11in]    
    ESNZ 091820Z 21011KT 7000 -RA FEW005 OVC026 06/06 Q0986
    ESNZ 091750Z 23010KT 7000 RA VV025 07/06 Q0987
    ESNZ 091720Z 24008KT 7000 RA FEW014 OVC020 06/06 Q0987
    ESNZ 091650Z 25008KT 7000 -RA OVC014 07/06 Q0987
    ESNZ 091620Z 26007KT 9000 -RA OVC017 07/06 Q0988
    ESNZ 091550Z 26006KT 7000 -RA OVC020 07/07 Q0988
    ESNZ 091520Z 24005KT 8000 -RA OVC027 07/05 Q0988
    ESNZ 091450Z 11005KT 080V140 5000 RA VV026 07/06 Q0989
  • ESST: Torsby Airport, Sweden [989mb, 29.20in]    
    ESST 091550Z AUTO 13009KT 090V160 9999 RA FEW048/// SCT062/// BKN080/// 10/07 Q0989
    ESST 091520Z AUTO 12008KT 9999 FEW023/// SCT053/// BKN160/// 10/07 Q0989
    ESST 091450Z AUTO 15010KT 9999 -RA OVC049/// 10/06 Q0989
0 stations reporting sea level pressure > 1055mb

0 stations reporting sea level pressure 1050-1054mb

0 stations reporting sea level pressure 1045-1049mb

2 stations reporting sea level pressure 1040-1044mb

  • FDMY: Mayiwane, Swaziland [1043mb, 30.79in]    
    FDMY 091700Z AUTO 01002KT //// // ////// 14/07 Q1043
    FDMY 091600Z AUTO 35001KT //// // ////// 14/07 Q1042
  • SLLP: La Paz / Alto, Bolivia [1041mb, 30.73in]    
    SLLP 091600Z 22004KT 9999 NSC 12/M12 Q1040
    SLLP 091500Z 24004KT 9999 NSC 11/M12 Q1041
10 stations reporting sea level pressure 1035-1039mb

  • FAPP: Polokwane Intl, South Africa [1035mb, 30.56in]    
    FAPP 091800Z 09004KT CAVOK 08/02 Q1035 NOSIG
    FAPP 091700Z 10005KT CAVOK 10/03 Q1035 NOSIG
  • FASI: Springs, South Africa [1037mb, 30.62in]    
    FASI 091800Z AUTO 04001KT //// // ////// 07/M00 Q1037
    FASI 091700Z AUTO 18001KT //// // ////// 08/M00 Q1036
    FASI 091600Z AUTO 00000KT //// // ////// 10/M00 Q1036
    FASI 091500Z AUTO 13001KT //// // ////// 14/M00 Q1035
  • FAVV: Vereeniging, South Africa [1035mb, 30.56in]    
    FAVV 091800Z AUTO 32003KT //// // ////// 08/M00 Q1035
  • FDPP: Piggs Peak, Swaziland [1035mb, 30.56in]    
    FDPP 091700Z AUTO 26004KT //// // ////// 12/04 Q1035
    FDPP 091600Z AUTO 26005KT //// // ////// 12/04 Q1035
  • SLLP: La Paz / Alto, Bolivia [1039mb, 30.68in]    
    SLLP 091800Z 24006KT 9999 FEW020 14/M12 Q1038
    SLLP 091700Z 27006KT 9999 NSC 13/M11 Q1039
  • SLOR: Oruro, Bolivia [1038mb, 30.65in]    
    SLOR 091600Z VRB02KT 9999 NSC 14/M04 Q1037
    SLOR 091500Z 36003KT 9999 NSC 12/02 Q1038
  • SPHY: Andahuayla, Peru [1037mb, 30.62in]    
    SPHY 091700Z 01002KT CAVOK 16/04 Q1035 RMK BIRD HAZARD RWY03/21 PP000
    SPHY 091600Z 06003KT CAVOK 15/04 Q1036 RMK BIRD HAZARD RWY03/21 PP000
    SPHY 091500Z 26002KT CAVOK 13/01 Q1037 RMK BIRD HAZARD RWY03/21 PP000
  • SPJJ: Jauja, Peru [1037mb, 30.62in]    
    SPJJ 091700Z 12003KT CAVOK 16/M00 Q1035 RMK PP000
    SPJJ 091600Z 22004KT CAVOK 14/M01 Q1036 RMK PP000
    SPJJ 091500Z 08003KT CAVOK 11/M02 Q1037 RMK PP000
  • SPJL: Juliaca, Peru [1039mb, 30.68in]    
    SPJL 091800Z VRB03KT CAVOK 15/M13 Q1036 RMK BIRD HAZARD RWY 12/30 PP000
    SPJL 091700Z 19004KT CAVOK 13/M11 Q1037 RMK BIRD HAZARD RWY 12/30 PP000
    SPJL 091600Z 11004KT 070V190 CAVOK 12/M10 Q1038 RMK BIRD HAZAR RWY 12/30 PP000
    SPJL 091500Z VRB03KT CAVOK 10/M09 Q1039 RMK BIRD HAZARD RWY 12/30 PP000
  • SPZO: Cuzco, Peru [1035mb, 30.56in]    
    SPZO 091530Z VRB03KT 9999 NSC 14/M11 Q1035 NOSIG RMK BIRD HAZARD RWY 10/28
    SPZO 091500Z 04004KT 360V100 9999 NSC 13/M10 Q1035 NOSIG RMK BIRD HAZARD RWY 10/28 PP000


0 stations reporting 3-hourly pressure fall of 10mb or greater

0 stations reporting 3-hourly pressure fall of 5mb to 9.9mb

8 stations reporting 3-hourly pressure rise of 5mb to 9.9mb

  • CWAF: Ile Rouge, Canada [6.4mb]
    CWAF 091500Z AUTO 05004KT 09/09 RMK AO1 T00920091 50064
    CWAF 091600Z AUTO 06006KT 09/09 RMK AO1 T00920091 50064
    CWAF 091700Z AUTO 06009KT 09/09 RMK AO1 T00900088 50064
    CWAF 091800Z AUTO 04009KT 09/09 RMK AO1 T00930092 50064
  • CWDT: Chute Des Passes, Canada [7.4mb]
    CWDT 091500Z AUTO RMK AO1 6PAST HR 8007 P0006 50059
    CWDT 091600Z AUTO RMK AO1 7PAST HR 6010 P0003 50066
    CWDT 091700Z AUTO RMK AO1 3PAST HR 8008 P0001 50069
    CWDT 091800Z AUTO RMK AO1 5PAST HR 7009 P0002 50074
  • CWIZ: L'Acadie, Canada [5.6mb]
    CWIZ 091800Z AUTO 30006G18KT 14/10 RMK AO1 8PAST HR M PK WND 31018/1753 P0019 T01360101 50056
  • CWJB: Ste Foy CS , Que., Canada [5.2mb]
    CWJB 091800Z AUTO 20005KT 14/13 RMK AO1 3PAST HR M P0005 T01410131 50052
  • CWJO: Jonquiere, Canada [7.2mb]
    CWJO 091600Z AUTO 24002KT 15/13 RMK AO1 5PAST HR 5001 SLP955 P0006 T01460134 50063
    CWJO 091700Z AUTO 22003KT 15/14 RMK AO1 7PAST HR 8003 SLP952 P0003 T01500136 50070
    CWJO 091800Z AUTO 25003KT 15/13 RMK AO1 2PAST HR 8005 SLP949 P0001 T01530133 50072
  • CWJT: St Jovite, Canada [7.3mb]
    CWJT 091600Z AUTO 22001KT 13/13 RMK AO1 1PAST HR 6009 SLP990 P0012 T01290129 50071
    CWJT 091700Z AUTO 25002KT 14/14 RMK AO1 8010 SLP984 T01420139 50071
    CWJT 091800Z AUTO 00000KT 15/14 RMK AO1 2PAST HR 8012 SLP978 P0001 T01460142 50073
  • CWUX: La Baie , Que., Canada [9.6mb]
    CWUX 091500Z AUTO 23002KT 14/14 RMK AO1 0PAST HR 0000 SLP961 P0008 T01400140 50096
  • CWVQ: Ste Anne De Bell 1, Canada [9.7mb]
    CWVQ 091700Z AUTO 29005KT 15/12 RMK AO1 6PAST HR 7017 SLP980 P0018 T01510124 50095
    CWVQ 091800Z AUTO 27009KT 18/12 RMK AO1 2PAST HR 8018 SLP972 P0001 T01830123 50097
3 stations reporting 3-hourly pressure rise of 10mb or greater

  • CWIX: Mistook, Canada [15.9mb]
    CWIX 091500Z AUTO 14/14 RMK AO1 4PAST HR 6002 SLP951 P0021 T01410139 50102
    CWIX 091600Z AUTO 14/14 RMK AO1 3PAST HR 8005 SLP948 P0013 T01350143 50135
    CWIX 091700Z AUTO 15/14 RMK AO1 4PAST HR 8005 SLP946 P0009 T01460143 50159
  • CWUX: La Baie , Que., Canada [12.2mb]
    CWUX 091600Z AUTO 19001KT 15/15 RMK AO1 8PAST HR 6001 SLP960 P0007 T01490149 50114
    CWUX 091700Z AUTO 05003KT 14/14 RMK AO1 6PAST HR 8008 SLP953 P0002 T01430143 50120
    CWUX 091800Z AUTO 06003KT 14/14 RMK AO1 2PAST HR 8010 SLP950 P0001 T01410141 50122
  • KDYS: Abilene, Dyess AFB, TX, United States [15.6mb]
    KDYS 091755Z 09004KT 10SM CLR 33/21 A2995 RMK AO2A SLPNO ALSTG DATA ESTMD T03270212 10333 20236 52156


0 stations reporting heavy snow

0 stations reporting any sleet

0 stations reporting any freezing rain

37 stations reporting heavy rain

  • CYBG: Bagotville, Que., Canada
    CYBG 091547Z 00000KT 1 1/2SM R11/4000FT +SHRA BR BKN005 OVC015 14/14 A2940 RMK SF6SC2 DENSITY ALT 1381FT VIS VRB 1-2 SLP959
  • CYOO: Oshawa, Ont., Canada
    CYOO 091528Z AUTO 27009KT 9SM +RA BKN037 BKN046 OVC055 15/11 A2965 RMK PCPN 1.0MM PAST HR SLP043 DENSITY ALT 900FT
  • CYOW: Ottawa Int'L. Ont., Canada
    CYOW 091716Z VRB09G17KT 4SM +SHRA BR BKN021TCU BKN060 17/13 A2950 RMK TCU6SC1 SLP992 DENSITY ALT 1200FT
  • CYQB: Quebec, Que, Canada
    CYQB 091607Z 25008G17KT 6SM +SHRA BR BKN007 OVC015 14/14 A2945 RMK SF5SC3 CVCTV CLD EMBD SLP975 DENSITY ALT 800FT
  • CYUL: Montreal / Dorval International, Que, Canada
    CYUL 091649Z 31011KT 260V320 8SM +SHRA FEW015 BKN020TCU OVC035 15/12 A2948 RMK CF1TCU6SC2 CF TR VIS S 3 SLP986 DENSITY ALT 700FT
  • CYYZ: Toronto Pearson Int'L. Ont., Canada
    CYYZ 091830Z 30012KT 10SM +SHRA BKN034 OVC070 16/13 A2963 RMK SC7AC1 CVCTV CLD EMBD SLP036 DENSITY ALT 1200FT
  • EFKE: Kemi, Finland
    EFKE 091650Z AUTO 05009KT 6000 2800 +SHRA //////CB 15/07 Q0996
  • EFKU: Kuopio, Finland
    EFKU 091650Z AUTO 22006KT 180V270 9999 +SHRA OVC014 //////CB 11/10 Q0997
  • EFLP: Lappeenranta, Finland
    EFLP 091450Z AUTO 24009KT 9000 +SHRA BKN006 BKN010 //////CB 12/11 Q0999
  • EFPO: Pori, Finland
    EFPO 091720Z AUTO 16008KT 140V200 9999 +SHRA //////CB 10/06 Q0996
  • EFSA: Savonlinna, Finland
    EFSA 091650Z AUTO 26007KT 9999 +SHRA OVC011 //////CB 10/09 Q0999
    EFSA 091720Z AUTO 24003KT 200V280 9000 +SHRA FEW022 OVC045 //////CB 10/09 Q0999
    EFSA 091750Z AUTO 25003KT 220V290 9000 +SHRA FEW022 OVC044 //////CB 10/09 Q0999
  • EGNS: Isle Of Man, United Kingdom
    EGNS 091750Z 08005KT 040V120 3000 +RA FEW004 SCT007 OVC014 11/10 Q1009
    EGNS 091820Z 05007KT 9000 +RA FEW006 SCT014 OVC040 10/08 Q1008
  • ENRY: Rygge, Norway
    ENRY 091720Z AUTO 26007KT 220V300 1700 +RA FEW001/// SCT021/// BKN036/// 11/06 Q0990
  • ESMV: Hagshult, Sweden
    ESMV 091720Z AUTO 24009KT 9999 +RA SCT025/// BKN036/// OVC044/// 08/07 Q0997
  • K2I0: Madisonville, KY, United States
    K2I0 091455Z AUTO 35008KT 3SM +RA SCT015 SCT019 OVC029 20/18 A2993 RMK AO2 P0027 60027 T01980175
    K2I0 091515Z AUTO 10004KT 3/4SM +RA BKN006 BKN011 OVC017 19/17 A2992 RMK AO2 P0061 T01890168
    K2I0 091535Z AUTO 00000KT 1SM +RA BKN006 OVC011 19/17 A2992 RMK AO2 P0094 T01880172
    K2I0 091555Z AUTO 35006KT 2SM +RA BKN004 BKN015 OVC021 19/17 A2994 RMK AO2 VIS 1V4 P0124 T01880172
    K2I0 091655Z AUTO 31008KT 5SM +RA BKN008 BKN021 OVC075 19/17 A2996 RMK AO2 P0014 T01870171
  • KASH: Nashua / Boire Field, NH, United States
    KASH 091456Z 00000KT 1 1/2SM +RA SCT008 OVC047 13/ A2957 RMK AO2 SLP019 6//// T0128 58028
  • KBOS: Boston, Logan Intl Arpt, MA, United States
    KBOS 091554Z 04006KT 3SM +RA BR SCT044 BKN060 OVC075 14/13 A2953 RMK AO2 SLP000 P0007 T01440128 $
    KBOS 091628Z 34007KT 2 1/2SM +RA BR BKN009 BKN014 OVC038 14/13 A2955 RMK AO2 P0009 T01390128 $
  • KBWG: Bowling Green, KY, United States
    KBWG 091722Z AUTO 32005KT 1 1/4SM +RA BR FEW008 BKN037 OVC049 23/21 A2991 RMK AO2 LTG DSNT E RAB1658 P0007 T02280206
  • KFWB: Branson West, MO, United States
    KFWB 091615Z AUTO 07003KT 1 3/4SM +RA BR SCT008 SCT038 BKN055 21/20 A2996 RMK AO2
  • KGFL: Glens Falls, NY, United States
    KGFL 091729Z AUTO 3/4SM +RA BR FEW014 BKN022 OVC060 16/14 A2954 RMK AO2 RAB14 P0012 T01560139
  • KGLW: Glasgow, Glasgow Municipal Airport, KY, United States
    KGLW 091615Z AUTO 28003KT 1 3/4SM +RA SCT016 OVC023 22/21 A2990 RMK AO2 LTG DSNT W THRU NE P0010 T02230214
  • KHST: Homestead AFB, FL, United States
    KHST 091621Z AUTO 09005KT 6SM +RA BKN025 BKN039 BKN075 29/24 A2995 RMK AO2 DZB11E17RAB17 CIG 025V039 PRESRR SLP145 $
    KHST 091626Z AUTO 06008KT 1 1/8SM R06/5500FT +RA SCT026 BKN037 29/24 A2994 RMK AO2 VIS 1 1/8V10 DZB11E17RAB17 SLP142 $
    KHST 091631Z AUTO 08006KT 1 1/8SM R06/5500FT +RA FEW002 SCT026 OVC042 28/24 A2994 RMK AO2 VIS 7/8V5 VIS 1/2 RWY24 DZB11E17RAB17 SLP142 $
  • KHUL: Houlton, Houlton Intl Arpt, ME, United States
    KHUL 091702Z AUTO 26006KT 1 3/4SM +RA FEW032 BKN065 OVC080 16/13 A2944 RMK AO2 P0004 T01560128
    KHUL 091753Z AUTO VRB03KT 1/2SM +RA FG SCT024 BKN029 OVC080 16/14 A2943 RMK AO2 RAE33B48 SLP968 P0018 60028 T01560139 10189 20156 58006
  • KHYA: Hyannis, MA, United States
    KHYA 091756Z 24013G21KT 2SM +RA BR FEW013 SCT048 OVC060 18/17 A2949 RMK AO2 SLP987 P0010 60013 T01780172 10200 20178 56017
  • KJYO: Leesburg / Godfrey, VA, United States
    KJYO 091615Z AUTO 34012KT 7SM +RA SCT032 BKN040 OVC100 21/19 A2970 RMK AO2 P0007
  • KM21: Muhlenberg County, Greenville, KY, United States
    KM21 091555Z AUTO 36005KT 1 1/2SM +RA SCT008 BKN030 OVC060 20/19 A2992 RMK AO2 P0026 T01990190
    KM21 091615Z AUTO 33005KT 2 1/2SM +RA SCT020 BKN040 OVC050 20/19 A2993 RMK AO2 P0017 T01950187
    KM21 091635Z AUTO 31007KT 4SM +RA SCT005 BKN023 OVC050 19/19 A2994 RMK AO2 P0031 T01910185
    KM21 091655Z AUTO 34006KT 2 1/2SM +RA SCT007 BKN025 OVC049 19/19 A2995 RMK AO2 P0047 T01900185
  • KMRB: Martinsburg, WV, United States
    KMRB 091458Z 32012G20KT 1 1/2SM +RA FEW014 BKN040 OVC100 20/16 A2969 RMK AO2 PRESRR P0000 T02000161
  • KPVD: Providence, RI, United States
    KPVD 091545Z 35010KT 1 3/4SM +RA BR SCT006 BKN013 OVC017 16/16 A2954 RMK AO2 TWR VIS 2 P0008
    KPVD 091549Z 34011KT 2SM +RA BR SCT006 OVC015 16/15 A2954 RMK AO2 P0010
  • KPZQ: Rogers City, Presque Isle County Airport, MI, United States
    KPZQ 091515Z AUTO 33004KT 2SM +RA BKN010 OVC013 11/10 A2969 RMK AO2 T01110099
  • KU52: Beaver, UT, United States
    KU52 091515Z AUTO 10SM +RA CLR 21/02 A3010 RMK AO2
  • KUNO: West Plains, MO, United States
    KUNO 091637Z AUTO 00000KT 1 3/4SM +RA BR BKN012 OVC020 22/19 A2996 RMK AO2 VIS 3/4V5 RAB30 P0005 T02170194 $
  • KUUU: Newport, Newport State Airport, RI, United States
    KUUU 091649Z AUTO VRB03KT 1 1/4SM +RA BR SCT006 BKN010 OVC049 17/16 A2953 RMK AO2 P0015
  • LSMA: Alpnach, Switzerland
    LSMA 091520Z AUTO VRB03KT 4800NDV +SHRA FEW019 SCT028 BKN032 19/18 Q1008 RMK
  • LSMM: Meiringen, Switzerland
    LSMM 091520Z AUTO VRB07G27KT 1200NDV R10/0750V1400U R28/0800VP2000D +SHRA SCT006 BKN047 BKN100 15/15 Q1008 RMK
    LSMM 091550Z AUTO VRB04KT 3800NDV +SHRA SCT029 BKN054 15/14 Q1008 RMK
  • MYAF: Fresh Creek Airport, Bahamas
    MYAF 091719Z AUTO 27014KT 230V300 0650 +SHRA SCT011 BKN019 BKN023 //////CB 24/23 A2998
  • SMJP: Johan A. Pengel, Suriname
    SMJP 091813Z 17013KT 1500 +SHRA SCT010 FEW015CB BKN020 28/25 Q1011
    SMJP 091813Z 17013KT 1500 +SHRA SCT018 FEW015CB BKN020 28/25 Q1011
  • VOTV: Thiruvananthapuram, India
    VOTV 091830Z 31009KT 2000 +RA SCT010 SCT012 BKN080 27/25 Q1010
6 stations reporting unknown precipitation type

  • KBFA: UNKNOWN,
    KBFA 091535Z AUTO 30009G21KT 270V340 3SM UP BR SCT018 BKN028 12/11 A2973 RMK AO2
  • KFWB: Branson West, MO, United States
    KFWB 091555Z AUTO 12009KT 6SM UP BR FEW010 SCT042 BKN060 21/20 A2994 RMK AO2
  • KIZA: Santa Ynez, Santa Ynez Airport, CA, United States
    KIZA 091635Z AUTO 25005KT 1/2SM UP HZ OVC013 16/13 A2997 RMK AO2
    KIZA 091715Z AUTO VRB03KT 1/2SM UP HZ BKN015 18/13 A2997 RMK AO2 VIS 1/4V5
    KIZA 091755Z AUTO VRB03KT 1/2SM UP HZ VV005 19/14 A2997 RMK AO2
  • PAPB: St. George, St. George Airport, AK, United States
    PAPB 091634Z AUTO 2 1/2SM UP BR BKN003 OVC027 03/03 A2955 RMK AO2 RAE27UPB27 P0001 T00280028 TSNO $
    PAPB 091653Z AUTO 4SM UP BR OVC003 03/03 A2954 RMK AO2 RAE27B37E52UPB27E37B52 SLP992 P0001 T00280028 TSNO $
  • PASA: Savoonga Airport, AK, United States
    PASA 091556Z AUTO VRB05KT 10SM UP OVC011 03/01 A2982 RMK AO2 RAE43UPB48 SLP099 P0000 T00280011
  • PATQ: Atqasuk, AK, United States
    PATQ 091644Z AUTO 08016KT 1 3/4SM UP BR OVC002 00/M01 A3018
    PATQ 091644Z AUTO 08016KT 1 3/4SM UP BR OVC002 00/M01 A3018 RMK AO2 UPB44 P0000 FZRANO TSNO
    PATQ 091653Z AUTO 08014KT 3SM UP BR OVC002 00/M01 A3018
    PATQ 091653Z AUTO 08014KT 3SM UP BR OVC002 00/M01 A3018 RMK AO2 UPB44 P0000 FZRANO TSNO
    PATQ 091656Z AUTO 08013KT 8SM UP OVC002 00/M01 A3018
    PATQ 091656Z AUTO 08013KT 8SM UP OVC002 00/M01 A3018 RMK AO2 UPB44 SLP225 P0000 T00001006 FZRANO TSNO


1 station reporting ice accretion in the past 1 hour

  • PASC: Deadhorse, Deadhorse Airport, AK, United States [0.01 inch]
    PASC 091653Z 08013KT 2SM R06/2200VP6000FT BR OVC003 M01/M02 A3019 RMK AO2 SLP224 VIS 1V3 I1001 T10061017 $
    PASC 091753Z 06012KT 2SM BR OVC002 00/M02 A3018 RMK AO2 SLP221 VIS 1V3 I1001 I6004 T00001017 10000 21006 58009 $
1 station reporting ice accretion in the past 3 hours

  • PASC: Deadhorse, Deadhorse Airport, AK, United States [0.02 inch]
    PASC 091453Z 06012KT 2SM R06/4500VP6000FT BR OVC004 M01/M02 A3021 RMK AO2 SLP230 VIS 1V3 I1000 I3002 T10061017 56005 $
1 station reporting ice accretion in the past 6 hours

  • PASC: Deadhorse, Deadhorse Airport, AK, United States [0.04 inch]
    PASC 091753Z 06012KT 2SM BR OVC002 00/M02 A3018 RMK AO2 SLP221 VIS 1V3 I1001 I6004 T00001017 10000 21006 58009 $
0 stations reporting hourly snow depth increase (SNINCR) of 3+"

0 stations reporting hourly snow depth increase (SNINCR) of 2"

0 stations reporting hourly snow depth increase (SNINCR) of 1"

0 stations reporting hourly (melted) precip total of 3" or greater

0 stations reporting hourly (melted) precip total of 2-2.99"

1 station reporting hourly (melted) precip total of 1-1.99"

  • K2I0: Madisonville, KY, United States [1.24in]
    K2I0 091555Z AUTO 35006KT 2SM +RA BKN004 BKN015 OVC021 19/17 A2994 RMK AO2 VIS 1V4 P0124 T01880172
3 stations reporting hourly (melted) precip total of 0.5-0.99"

  • EQYT: UNKNOWN, [0.50in]
    EQYT 091555Z AUTO 00000KT 9999 -RA FEW033 SCT100 18/17 A2977 RMK AO2 LTG DSNT N RAE42RAB53 TSE11 SLP074 P0050 T01750165 $
  • K2I0: Madisonville, KY, United States [0.94in]
    K2I0 091515Z AUTO 10004KT 3/4SM +RA BKN006 BKN011 OVC017 19/17 A2992 RMK AO2 P0061 T01890168
    K2I0 091535Z AUTO 00000KT 1SM +RA BKN006 OVC011 19/17 A2992 RMK AO2 P0094 T01880172
  • KARG: Walnut Ridge, AR, United States [0.87in]
    KARG 091656Z AUTO 05007KT 10SM CLR 24/21 A2992 RMK AO2 SLP131 P0087 T02390206
0 stations reporting 3 or 6 hourly (melted) precip total of 5" or greater

0 stations reporting 3 or 6 hourly (melted) precip total of 4-4.99"

0 stations reporting 3 or 6 hourly (melted) precip total of 3-3.99"

0 stations reporting 3 or 6 hourly (melted) precip total of 2-2.99"


1 station reporting tornado, funnel cloud or waterspout

  • MUCU: Santiago De Cuba, Oriente, Cuba
    MUCU 091815Z 12008KT 100V160 8000 FC VCSH SCT018CB OVC020 29/26 Q1015 RMK CB AT III QUAD AD
0 stations reporting mammatus cloud

1 station reporting hail

  • LSGG: Geneve-Cointrin, Switzerland [unreported size]
    LSGG 091550Z AUTO 04010KT 9999 +TSGRRA BKN031CB 21/16 Q1005 RETSGR
    LSGG 091620Z AUTO 11009KT 070V130 2400 +TSRAGR FEW013 BKN027 BKN///CB 19/17 Q1007 RETSGR
    LSGG 091650Z AUTO 02010KT 9999 TSRA BKN044CB 17/16 Q1006 RETSGR NOSIG
0 stations reporting thundersnow

0 stations reporting thundersleet

0 stations reporting thunder with freezing rain

65 stations reporting thunder with rain

  • CYND: Gatineau Airport, Canada
    CYND 091800Z 35006KT 15SM -TSRA SCT032CB BKN053 BKN076 14/11 A2948 RMK CB3SC2AC2 CB OHD SLP986 DENSITY ALT 700FT
  • CYOW: Ottawa Int'L. Ont., Canada
    CYOW 091726Z 29008G30KT 10SM -TSRA BKN021CB OVC050 13/12 A2951 RMK CB5SC3 PRESRR SLP995 DENSITY ALT 700FT
  • CYRQ: Trois Rivieres, Que, Canada
    CYRQ 091810Z AUTO 26006G17KT 210V290 9SM -TSRA SCT012 SCT019 BKN060 BKN096 16/14 A2943 RMK LTNG DIST NE SLP970 DENSITY ALT 900FT
    CYRQ 091813Z AUTO 27008G17KT 210V300 8SM -TSRA SCT012 BKN020 BKN060 BKN096 15/14 A2943 RMK LTNG DIST NE SLP970 DENSITY ALT 900FT
  • CYUL: Montreal / Dorval International, Que, Canada
    CYUL 091710Z VRB03KT 15SM -TSRA SCT030CB BKN050 BKN110 14/11 A2946 RMK CB3SC3AC1 SLP978 DENSITY ALT 600FT
  • DNMM: Lagos / Ikeja, Nigeria
    DNMM 091500Z 28006KT 8000 -TSRA BKN010 FEW019CB 26/25 Q1012
  • EDJA: Memmingen Allgau, Germany
    EDJA 091720Z 01003KT 5000 TSRA FEW018CB SCT050 17/16 Q1008
  • EFJY: Jyvaskyla, Finland
    EFJY 091750Z AUTO 15007KT 120V240 9999 TSRA FEW009 BKN040 //////CB 10/09 Q0997
    EFJY 091820Z AUTO 27004KT 9999 -TSRA BKN009 //////CB 10/09 Q0997
  • EFPO: Pori, Finland
    EFPO 091450Z AUTO 19010G20KT 160V240 9999 -TSRA FEW035 BKN040 //////CB 11/07 Q0996 RETS
  • FEFF: Bangui, Central African Republic
    FEFF 091700Z 01019KT 350V050 4000 TSRA BKN010 FEW033CB 24/21 Q1012 WS R34
    FEFF 091730Z 35015KT 310V010 6000 -TSRA BKN010 FEW033CB 22/21 Q1013 RERA WS R34 NOSIG
    FEFF 091800Z VRB04KT 6000 -TSRA BKN010 FEW033CB 22/21 Q1015 RERA WS R34
  • KBUF: Buffalo, Greater Buffalo Intl Arpt, NY, United States
    KBUF 091820Z 23021G32KT 10SM -TSRA BKN021 BKN034CB BKN075 17/12 A2966 RMK AO2 PK WND 23032/1820 RAB1755 TSB18 OCNL LTGIC VC N TS VC N MOV E PCPN VRY LGT P0000 T01670122
  • KEKQ: Monticello, KY, United States
    KEKQ 091808Z AUTO 30006KT 4SM -TSRA BR OVC018 21/21 A2991 RMK AO2 LTG DSNT SW-NW TSB02 P0009
    KEKQ 091825Z AUTO 27008KT 2 1/2SM TSRA BR FEW008 BKN015 OVC028 21/21 A2991 RMK AO2 LTG DSNT E TSB02 P0025
    KEKQ 091832Z AUTO 29006KT 4SM -TSRA BR FEW010 BKN019 OVC032 21/21 A2990 RMK AO2 LTG DSNT E AND S TSB02 P0031
  • KGVQ: Batavia, NY, United States
    KGVQ 091756Z AUTO 25009KT 10SM -TSRA FEW027 BKN035 OVC060 16/13 A2965 RMK AO2 TSB52RAB41 SLP040 P0000 60000 T01560133 10189 20133 56007
  • KHKA: Blytheville, AR, United States
    KHKA 091551Z AUTO VRB04G16KT 2SM TSRA BKN009 BKN032 OVC049 22/19 A2991 RMK AO2 LTG DSNT ALQDS RAB37 TSB24 P0001 $
    KHKA 091552Z AUTO VRB04G16KT 2SM TSRA SCT007 BKN013 OVC049 22/19 A2991 RMK AO2 LTG DSNT ALQDS RAB37 TSB24 SLP124 P0001 T02220189 $
    KHKA 091555Z AUTO 06004KT 3SM -TSRA BKN007 BKN028 OVC049 23/19 A2990 RMK AO2 LTG DSNT ALQDS P0000 T02280189 $
  • KIAG: Niagara Falls, NY, United States
    KIAG 091804Z 23020G31KT 1 3/4SM R28R/3000VP6000FT TSRA FEW019 BKN034 OVC050 17/13 A2964 RMK AO2 PK WND 23031/1801 LTG DSNT E RAB02 TSB03 P0008 T01670128
    KIAG 091804Z COR 23020G31KT 1 3/4SM R28R/3000VP6000FT TSRA FEW019 BKN034 OVC050 17/13 A2964 RMK AO2 PK WND 23031/1801 TS OHD MOV E LTG DSNT E RAB02 TSB03 P0008 T01670128
    KIAG 091818Z 24018G26KT 3SM R28R/5500VP6000FT -TSRA FEW019 BKN036 OVC050 17/14 A2965 RMK AO2 PK WND 23031/1801 LTG DSNT W RAB02 TSB03 TS E MVG E P0014 T01670139
  • KK70: Key Largo, FL, United States
    KK70 091835Z AUTO 00000KT 9SM -TSRA SCT021 BKN025 OVC030 29/26 A2990 RMK AO2 LTG DSNT SE AND NW
  • KMAW: Malden, MO, United States
    KMAW 091455Z AUTO 01008KT 7SM -TSRA OVC100 21/20 A2997 RMK AO1 LTG DSNT SW THRU NE
    KMAW 091515Z AUTO 03005KT 5SM TSRA SCT030 SCT070 OVC100 21/20 A2998 RMK AO1 P0004 LTG DSNT SE THRU W
    KMAW 091615Z AUTO 05011G17KT 10SM -TSRA BKN005 BKN010 OVC044 19/17 A2991 RMK AO1 P0001
  • KXNA: Fayetteville/Springdale, AR, United States
    KXNA 091551Z 10006KT 6SM -TSRA BR SCT023 BKN095 23/21 A2991 RMK AO2 RAB15 P0006
    KXNA 091553Z 10006KT 7SM -TSRA SCT023 BKN100 23/21 A2992 RMK AO2 RAB15 SLP116 P0006 T02280206
  • LFHP: Le Puy, France
    LFHP 091500Z AUTO 30009KT 270V340 9999 -TSRA SCT012/// BKN018/// OVC034/// //////CB 17/15 Q1008
    LFHP 091500Z AUTO 30009KT 270V340 9999 -TSRA SCT012/// BKN018/// OVC034/// ///CB 17/15 Q1008
    LFHP 091530Z AUTO 26006KT 190V300 5000 -TSRA BR SCT002/// BKN007/// OVC014/// //////CB 15/14 Q1009
    LFHP 091530Z AUTO 26006KT 190V300 5000 -TSRA BR SCT002/// BKN007/// OVC014/// ///CB 15/14 Q1009
    LFHP 091630Z AUTO 29009KT 260V320 9000 TSRA BKN004/// BKN015/// BKN032/// //////CB 14/14 Q1009
    LFHP 091630Z AUTO 29009KT 260V320 9000 TSRA BKN004/// BKN015/// BKN032/// ///CB 14/14 Q1009
  • LFLB: Chambery / Aix-Les-Bains, France
    LFLB 091830Z AUTO 06003KT 010V120 5000 1300 R18/P5000 R36/3300D TSRA BR FEW016/// SCT042/// BKN076/// //////CB 17/16 Q1006
    LFLB 091830Z AUTO 06003KT 010V120 5000 1300 R18/P5000 R36/3300D TSRA BR FEW016/// SCT042/// BKN076/// ///CB 17/16 Q1006
  • LFLP: Annecy/meythet, France
    LFLP 091600Z AUTO 02008KT 330V100 9999 -TSRA FEW020/// SCT027/// OVC034/// ///CB 18/14 Q1006
    LFLP 091630Z AUTO 10005KT 010V150 9999 TSRA FEW038/// SCT046/// BKN062/// ///CB 18/15 Q1006
    LFLP 091700Z AUTO VRB03KT 8000 TSRA FEW056/// SCT074/// OVC086/// ///CB 17/16 Q1006
    LFLP 091800Z AUTO 00000KT 9999 -TSRA FEW056/// BKN100/// OVC120/// ///CB 17/16 Q1006
  • LFMI: Istres, France
    LFMI 091500Z AUTO 17009KT 4100 TSRA BR FEW016/// BKN042/// BKN056/// //////CB 20/18 Q1004
    LFMI 091500Z AUTO 17009KT 4100 TSRA BR FEW016/// BKN042/// BKN056/// ///CB 20/18 Q1004
    LFMI 091530Z AUTO 15010KT 110V180 9999 -TSRA BKN034/// BKN041/// BKN052/// //////CB 19/17 Q1003
    LFMI 091530Z AUTO 15010KT 110V180 9999 -TSRA BKN034/// BKN041/// BKN052/// ///CB 19/17 Q1003
    LFMI 091600Z AUTO 11013KT 7000 -TSRA SCT034/// BKN040/// BKN046/// //////CB 19/18 Q1004
    LFMI 091600Z AUTO 11013KT 7000 -TSRA SCT034/// BKN040/// BKN046/// ///CB 19/18 Q1004
  • LFML: Marseille / Marignane, France
    LFML 091530Z AUTO VRB04KT 9000 2100 TSRA FEW021/// BKN032/// BKN039/// //////CB 20/16 Q1004
    LFML 091530Z AUTO VRB04KT 9000 2100 TSRA FEW021/// BKN032/// BKN039/// ///CB 20/16 Q1004
  • LFMO: Orange, France
    LFMO 091700Z AUTO 13008KT 090V160 9999 -TSRA FEW012/// BKN054/// OVC066/// //////CB 21/19 Q1004
    LFMO 091700Z AUTO 13008KT 090V160 9999 -TSRA FEW012/// BKN054/// OVC066/// ///CB 21/19 Q1004
  • LFMV: Caumont, France
    LFMV 091800Z AUTO 00000KT 9999 -TSRA FEW060/// BKN100/// ///CB 20/18 Q1005
  • LFMY: Salon, France
    LFMY 091500Z AUTO 16005KT 9999 -TSRA BKN044/// BKN050/// BKN060/// //////CB 20/18 Q1003
    LFMY 091500Z AUTO 16005KT 9999 -TSRA BKN044/// BKN050/// BKN060/// ///CB 20/18 Q1003
    LFMY 091600Z AUTO 16007KT 130V200 9999 -TSRA FEW012/// BKN160/// //////CB 21/18 Q1004
    LFMY 091600Z AUTO 16007KT 130V200 9999 -TSRA FEW012/// BKN160/// ///CB 21/18 Q1004
  • LHPA: Papa, Hungary
    LHPA 091653Z 13005KT 9999 -TSRA SCT033CB FEW040TCU BKN083 OVC200 25/18 Q1006 RMK BLU
    LHPA 091712Z 33013KT 9999 -TSRA SCT033CB BKN083 OVC200 24/18 Q1006 RMK BLU
  • LIMA: Aeritalia, Italy
    LIMA 091511Z VRB02KT 9999 TSRA BKN030CB 22/17 Q1006
    LIMA 091550Z VRB02KT 9999 TSRA BKN030CB 22/18 Q1006
    LIMA 091650Z 31009KT 260V350 9999 TSRA BKN025CB 19/15 Q1007
  • LIME: Bergamo / Orio Al Serio, Italy
    LIME 091820Z 15007KT 6000 TSRA SCT025CB BKN040 21/19 Q1006 NOSIG
  • LIMF: Torino / Caselle, Italy
    LIMF 091550Z 35004KT 9999 TSRA SCT040CB BKN050 22/18 Q1006
    LIMF 091650Z 28011KT 8000 3500N TSRA SCT040CB OVC080 20/18 Q1008
  • LIMZ: Cuneo / Levaldigi, Italy
    LIMZ 091550Z 35006KT 320V040 8000 TSRA BKN030CB 21/17 Q1006
    LIMZ 091620Z 28008KT 240V310 8000 TSRA BKN030CB 19/18 Q1007
    LIMZ 091650Z 34008KT 290V030 6000 -TSRA SCT030CB 19/18 Q1006 RERA
  • LOAV: Niederosterreich / Lugplatz Voslau, Austria
    LOAV 091644Z 12007KT 7000 TSRA BKN030 FEW030CB 24/21
  • LOWI: Innsbruck-Flughafen, Austria
    LOWI 091720Z 25010KT 200V280 9999 -TSRA FEW036 BKN070 FEW070CB 21/17 Q1007
  • LOWS: Salzburg-Flughafen, Austria
    LOWS 091750Z 32011KT 4000 TSRA SCT026 FEW040CB BKN044 18/17 Q1007
  • LOWW: Wien / Schwechat-Flughafen, Austria
    LOWW 091750Z 10007KT 060V120 6000 TSRA FEW020 BKN038 FEW040CB 21/18 Q1005 RETSRA
  • LOXT: Tulln, Austria
    LOXT 091650Z VRB03KT 25KM -TSRA FEW025CU FEW040CB SCT050SC BKN100AC 22/17 Q1005 RMK CB S AND W MOV E/OVC
  • LOXZ: Zeltweg, Austria
    LOXZ 091620Z 25014G38KT 210V310 9999 -TSRA FEW040 FEW050CB BKN090 23/13 Q1009
  • LSGG: Geneve-Cointrin, Switzerland
    LSGG 091650Z AUTO 02010KT 9999 TSRA BKN044CB 17/16 Q1006 RETSGR NOSIG
    LSGG 091720Z AUTO 36004KT 280V050 9999 -TSRA BKN063 FEW///CB 17/15 Q1006 RETS
  • LSGS: Sion, Switzerland
    LSGS 091650Z VRB03KT 6000 TSRA SCT045CB OVC070 18/14 Q1007
  • LSZA: Lugano, Switzerland
    LSZA 091450Z VRB03KT 9999 TSRA FEW033CB SCT065 19/18 Q1008
  • LSZB: Bern / Belp, Switzerland
    LSZB 091450Z 01004KT 270V050 9999 -TSRA FEW030 SCT037CB BKN100 21/16 Q1007
    LSZB 091820Z 16012KT 110V190 9999 3000S TSRA FEW005 SCT017CB BKN021 18/15 Q1007 RETS
  • LSZC: Buochs, Switzerland
    LSZC 091550Z AUTO VRB03KT 9999 -TSRA FEW080 SCT090 BKN100 SCT///CB 18/17 Q1007
  • LSZR: Saint Gallen-Altenrhein, Switzerland
    LSZR 091750Z 14003KT 060V220 7000 -TSRA FEW013 SCT022 BKN090CB 17/16 Q1007 RMK M
  • LTCD: Erzincan, Turkey
    LTCD 091650Z 25016KT 9999 -TSRA FEW030CB SCT040 BKN080 18/12 Q1014
    LTCD 091750Z 25006KT 230V290 9999 -TSRA FEW030CB SCT040 BKN080 15/13 Q1015
  • LTCE: Erzurum, Turkey
    LTCE 091526Z 24011KT 9000 -TSRA FEW025CB BKN035 17/10 Q1015 RETS
  • LTCF: Kars, Turkey
    LTCF 091641Z 02008KT 9999 -TSRA FEW025CB SCT040 BKN080 13/09 Q1016 RETS NOSIG
    LTCF 091641Z 02008KT 9999 -TSRA FEW025CB SCT040 BKN080 13/09 Q1016 RETS NOSIG RMK RWY24 35008KT
    LTCF 091650Z 03010KT 9999 -TSRA FEW025CB SCT040 BKN080 12/10 Q1015 RETS NOSIG
    LTCF 091650Z 03010KT 9999 -TSRA FEW025CB SCT040 BKN080 12/10 Q1015 RETS NOSIG RMK RWY24 34007KT 300V040
    LTCF 091750Z 11011KT 9999 -TSRA FEW025CB SCT040 BKN080 12/10 Q1016 NOSIG
    LTCF 091750Z 11011KT 9999 -TSRA FEW025CB SCT040 BKN080 12/10 Q1016 NOSIG RMK RWY24 11009KT
  • LZIB: Bratislava Ivanka, Slovakia
    LZIB 091830Z 05006KT 9999 -TSRA SCT035CB BKN040 23/18 Q1006 NOSIG
  • MPTO: Tocumen, Panama
    MPTO 091700Z VRB02KT 8000 -TSRA FEW008 SCT015CB SCT080 27/25 Q1012
  • MUSC: Santa Clara, Cuba
    MUSC 091738Z 19014KT 170V230 1000 R08/P2000D TSRA OVC015CB 24/23 Q1015 RMK CB OLL QUAD
    MUSC 091750Z 18009KT 150V210 1000 R08/P2000D -TSRA OVC015CB 24/24 Q1015
    MUSC 091801Z 16007KT 130V190 3000 -TSRA OVC018CB 25/24 Q1015 RMK CB AT II AND IV QUAD
  • OITL: Ardabil, Iran
    OITL 091453Z 16012KT 8000 TSRA BKN030 BKN040CB 20/15 Q1015
    OITL 091500Z 16012KT 8000 TSRA BKN030 BKN040CB 20/15 Q1015
    OITL 091530Z 08012KT 8000 TSRA BKN030 BKN040CB 18/14 Q1013
    OITL 091630Z 29014KT 9999 TSRA BKN030 BKN040CB 19/13 Q1017
    OITL 091653Z 28014KT 7000 TSRA BKN030 BKN040CB 17/14 Q1018
    OITL 091700Z 28014KT 7000 TSRA BKN030 BKN040CB 17/14 Q1018
  • RPMD: Davao Airport, Philippines
    RPMD 091500Z 18006KT 2000 TSRA SCT015CB OVC080 24/24 Q1014 RMK A2994 CB/LTG N SE-S OHD
  • SAZM: Mar Del Plata Aerodrome, Argentina
    SAZM 091600Z 23007KT 170V250 6000 -TSRA BKN025 FEW048CB 18/16 Q0999
    SAZM 091700Z 25010KT 200V270 4000 TSRA BKN025 FEW045CB 18/16 Q1001
  • SBSL: Sao Luiz Aeroporto, Brazil
    SBSL 091800Z 14015G30KT 3000 1000SW TSRA SCT003 BKN012 FEW020CB BKN100 26/24 Q1012
  • SYCJ: Georgetown/Cheddi Jagan Arpt, Guyana
    SYCJ 091832Z 29008KT 8000 -TSRA FEW016CB SCT018 BKN036 28/26 Q1011 NOSIG RMK CB S-NW
    SYCJ 091840Z 29008KT 5000 TSRA FEW016CB SCT018 BKN036 28/26 Q1011 NOSIG RMK CB S-NW
  • UBBN: Nakchivan, Azerbaijan
    UBBN 091500Z 27016KT 9999 -TSRA BKN030CB OVC080 20/16 Q1011 NOSIG RMK QFE685
    UBBN 091530Z 03010KT 9999 -TSRA BKN030CB OVC080 19/16 Q1011 NOSIG RMK QFE685
    UBBN 091600Z 07014KT 9999 -TSRA SCT030CB OVC080 20/15 Q1008 NOSIG RMK QFE682
    UBBN 091630Z 08014G24KT 9999 -TSRA BKN030CB OVC080 21/13 Q1008 NOSIG RMK QFE681
    UBBN 091700Z 10014G32KT 9999 -TSRA BKN030CB OVC080 22/11 Q1008 NOSIG RMK QFE681
    UBBN 091700Z 12008KT 9999 -TSRA BKN030CB OVC080 23/11 Q1008 NOSIG RMK MT OP QFE682
    UBBN 091730Z 09012KT 9999 -TSRA BKN030CB OVC080 20/13 Q1009 NOSIG RMK QFE682
    UBBN 091830Z 10012KT 9999 -TSRA BKN030CB OVC080 22/11 Q1010 NOSIG RMK QFE683
  • UDSG: Shirak, Armenia
    UDSG 091830Z 31009KT 9000 -TSRA BKN049CB 15/11 Q1016 NOSIG
  • UGSB: Batumi, Georgia
    UGSB 091500Z 20003KT 140V260 1700 TSRA SCT006 OVC023CB 20/19 Q1011 NOSIG
    UGSB 091730Z 22010KT 4900 TSRA FEW008 BKN012CB 20/19 Q1012 NOSIG
  • UIII: Irkutsk, Russia
    UIII 091630Z 31005MPS 7000 -TSRA SCT039CB 16/16 Q1005 R30/290150 NOSIG RMK QFE709/0946
  • URKK: Krasnodar, Russia
    URKK 091500Z 06003MPS 360V080 9999 -TSRA BKN066CB 20/18 Q1011 R23L/290160
    URKK 091530Z 05002MPS 9999 -TSRA BKN///CB 19/18 Q1011 R23L/290160
    URKK 091600Z 21002MPS 170V240 9999 -TSRA BKN///CB 19/19 Q1010 R05R/290160
  • URMO: Dalakovo Vladikavkaz Beslan, Russia
    URMO 091630Z 28008MPS 4700 -TSRA BKN041CB 18/17 Q1012 RESHRA R27/290550
  • VABB: Bombay / Santacruz, India
    VABB 091600Z 06009KT 1500 R27/2000 TSRA SCT015 FEW030CB OVC080 28/26 Q1006
    VABB 091630Z 10010KT 1500 R27/2000 TSRA SCT015 FEW030CB OVC080 28/28 Q1006
    VABB 091700Z 12009KT 1500 R27/2000 TSRA SCT015 FEW030CB OVC080 26/24 Q1006
    VABB 091730Z 12006KT 1500 R27/2000 TSRA SCT010 SCT015 FEW030CB OVC080 27/27 Q1006
    VABB 091800Z 23010KT 1500 R27/2000 TSRA SCT010 SCT015 FEW030CB OVC080 27/27 Q1007
  • VOML: Mangalore / Bajpe, India
    VOML 091630Z 07003KT 1600 TSRA BR FEW002 SCT012 FEW025CB BKN080 23/23 Q1009
    VOML 091700Z 10004KT 0800 R24/1000 TSRA FG FEW001 SCT012 FEW025CB BKN080 23/23 Q1009
  • WMAU: Mersing, Malaysia
    WMAU 091500Z VRB03KT 8000 -TSRA FEW017CB SCT025 26/25 Q1011
  • WMKD: Kuantan, Malaysia
    WMKD 091700Z 00000KT 8000 -TSRA FEW016CB SCT024 25/24 Q1011 RETSRA NOSIG
    WMKD 091800Z 00000KT 8000 -TSRA FEW003 FEW016CB SCT024 25/24 Q1011 NOSIG
  • WMKP: Penang / Bayan Lepas, Malaysia
    WMKP 091630Z 26005KT 220V310 6000 TSRA FEW017CB SCT023 29/26 Q1011 NOSIG
    WMKP 091700Z VRB02KT 8000 -TSRA FEW012 FEW017CB SCT025 27/25 Q1011 RETSRA NOSIG
  • ZJSY: Sanya/Fenghuang, China
    ZJSY 091800Z VRB01MPS 9000 -TSRA FEW013 FEW025CB BKN040 27/25 Q1008


0 stations reporting blizzard conditions

0 stations reporting near-blizzard conditions


1 station reporting visibility of zero

  • KMWN: Mount Washington, NH, United States
    KMWN 091453Z 25007KT 0SM -SHRA FG VV000 03/03 RMK
    KMWN 091649Z 28018KT 0SM -SHRA FG VV000 03/03 RMK
    KMWN 091747Z 27023G26KT 0SM FG VV000 03/03 RMK SHRAE10 60020 10032 20018
8 stations reporting visibility 1/8 mile or less, but not zero

  • K1FW: Foxtrot Madis, NE, United States [1/8mile]
    K1FW 091455Z AUTO 13014KT 1/8SM FG VV002 13/13 A3015 RMK AO2 SLP177 T01300128 53007 RVRNO $
  • K2G4: Garrett Co, MD, United States [<1/4mile]
    K2G4 091445Z AUTO VRB06G16KT M1/4SM FG OVC002 13/13 A2979 RMK AO2
  • KMWN: Mount Washington, NH, United States [1/16mile]
    KMWN 091551Z 24014KT 1/16SM SHRA FG VV000 03/03 RMK
  • LIRX: Monte Calamita, Italy [100meters]
    LIRX 091555Z 15013KT 0100 FG VV/// 19/18 Q1005
    LIRX 091555Z 15013KT 0100 FG VV/// 19/18 Q1005 RMK VIS MIN 0100 VIS MAR 0100M
    LIRX 091655Z 16012KT 0100 FG VV/// 20/18 Q1005
    LIRX 091655Z 16012KT 0100 FG VV/// 20/18 Q1005 RMK VIS MIN 0100 VIS MAR 0100M
  • UHWW: Vladivostok, Russia [200meters]
    UHWW 091530Z 00000MPS 0200 R25L/0650N FG VV001 13/13 Q1006 R25L/290160 NOSIG RMK QBB050 MT OBSC QFE753
    UHWW 091830Z 08002MPS 0200 0150E R25L/0550N FG VV001 12/12 Q1006 R25L/190065 NOSIG RMK QBB050 MT OBSC QFE753
  • UIBB: Bratsk / Irkutsk, Russia [150meters]
    UIBB 091530Z AUTO 29003MPS 0150 0100S // ///000/// 14/14 Q1002 RMK QBB010 QFE709/0945
    UIBB 091800Z AUTO 28003MPS 0150 // ///000/// 14/14 Q1003 RMK QBB010 QFE710/0946
  • VOGA: UNKNOWN, [200meters]
    VOGA 091530Z 13003KT 0200 R28/P2000 R10/P2000 BR VCFG BKN007 OVC080 24/24 Q1008 NOSIG
  • YSDU: Dubbo, Australia [100meters]
    YSDU 091630Z AUTO 00000KT 0200 FG ////// 04/03 Q1022 RF00.0/000.0 CLD
    YSDU 091630Z AUTO 00000KT 0200 FG ////// 04/03 Q1022 RF00/0/000/0 CLD/SKY MAY BE OBSC
    YSDU 091742Z AUTO 08005KT 0100 FG BKN001 02/02 Q1022 RF00.0/000.0
    YSDU 091742Z AUTO 08005KT 0100 FG BKN001 02/02 Q1022 RF00/0/000/0
1 station reporting visibility 75 miles or greater

  • KEDW: Edwards AFB, CA, United States [90miles]
    KEDW 091655Z 24012G18KT 90SM FEW180 SCT250 28/07 A2987 RMK AO2A SLP092 T02840070
    KEDW 091755Z 22012G19KT 90SM FEW180 SCT250 30/06 A2986 RMK AO2A SLP087 T03000059 10300 20166 58001
1 station reporting visibility 50-74 miles

  • CYQL: Lethbridge, Alta., Canada [60miles]
    CYQL 091500Z 13008KT 60SM FEW055 SCT100 BKN270 10/02 A3018 RMK SC1AC3CI1 SLP234
    CYQL 091600Z 11010G15KT 60SM FEW040 FEW270 12/03 A3016 RMK CU1CI1 CU TR SLP226
    CYQL 091700Z 12009G16KT 070V160 60SM FEW045 FEW160 BKN250 14/03 A3013 RMK CU1AC1CI5 CU TR SLP216 DENSITY ALT 3500FT
    CYQL 091800Z 14010KT 100V160 60SM FEW050 FEW150 BKN270 16/04 A3011 RMK CU1AC1CI4 SLP208 DENSITY ALT 3700FT


0 stations reporting aurora

0 stations reporting solar/lunar eclipse


0 stations reporting inside a hurricane eye

0 stations reporting aircraft mishap

13 stations reporting bird hazard on the runway

  • SPCL: Pucallpa, Peru
    SPCL 091500Z 04003KT 9999 SCT020 27/23 Q1016 RMK BIRD HAZARD RWY 02/20 PP000
    SPCL 091600Z 30003KT 9999 SCT020 30/23 Q1016 RMK BIRD HAZARD RWY 02/20 PP000
    SPCL 091700Z 05007KT 9999 BKN022 31/23 Q1015 RMK BIRD HAZARD RWY 02/20 PP000
    SPCL 091800Z 35005KT 9999 BKN022 32/22 Q1014 RMK BIRD HAZARD RWY 02/20 PP000
  • SPHI: Chiclayo, Peru
    SPHI 091500Z 16009KT 9999 OVC020 21/15 Q1017 RMK BIRD HAZARD RWY 19/01 PP000
    SPHI 091600Z 16009KT 120V190 9999 BKN020 22/15 Q1016 RMK BIRD HAZARD RWY 19/01 PP000
    SPHI 091700Z 18013KT 9999 BKN028 23/15 Q1016 RMK BIRD HAZARD RWY 19/01 PP000
    SPHI 091800Z 20009KT 150V240 9999 FEW030 24/15 Q1015 RMK BIRD HAZARD RWY 19/01 PP000
  • SPHO: Ayacucho, Peru
    SPHO 091500Z VRB02KT CAVOK 14/M08 Q1033 RMK BIRD HAZARD RWY 02/20 PP000
    SPHO 091600Z VRB03KT CAVOK 16/M07 Q1032 RMK BIRD HAZARD RWY 02/20 PP000
    SPHO 091700Z VRB03KT CAVOK 19/M08 Q1030 RMK BIRD HAZARD RWY 02/20 PP000
    SPHO 091800Z VRB02KT CAVOK 21/M07 Q1029 RMK BIRD HAZARD RWY 02/20 PP000
  • SPHY: Andahuayla, Peru
    SPHY 091500Z 26002KT CAVOK 13/01 Q1037 RMK BIRD HAZARD RWY03/21 PP000
    SPHY 091600Z 06003KT CAVOK 15/04 Q1036 RMK BIRD HAZARD RWY03/21 PP000
    SPHY 091700Z 01002KT CAVOK 16/04 Q1035 RMK BIRD HAZARD RWY03/21 PP000
    SPHY 091800Z 33006KT CAVOK 17/06 Q1034 RMK BIRD HAZARD RWY03/21 PP000
  • SPJJ: Jauja, Peru
    SPJJ 091800Z 18003KT CAVOK 18/M03 Q1033 RMK BIRD HAZARD RWY13/31 PP000
  • SPJL: Juliaca, Peru
    SPJL 091500Z VRB03KT CAVOK 10/M09 Q1039 RMK BIRD HAZARD RWY 12/30 PP000
    SPJL 091600Z 11004KT 070V190 CAVOK 12/M10 Q1038 RMK BIRD HAZAR RWY 12/30 PP000
    SPJL 091700Z 19004KT CAVOK 13/M11 Q1037 RMK BIRD HAZARD RWY 12/30 PP000
    SPJL 091800Z VRB03KT CAVOK 15/M13 Q1036 RMK BIRD HAZARD RWY 12/30 PP000
  • SPME: Tumbes, Peru
    SPME 091500Z 35005KT 9999 OVC013 24/21 Q1015 RMK BIRD HAZARD RWY 32/14 TN 21.8 PP000
    SPME 091600Z 01006KT 9999 OVC013 25/21 Q1015 RMK BIRD HAZARD RWY 32/14 PP000
    SPME 091700Z 01008KT 9999 SCT015 27/21 Q1014 RMK BIRD HAZARD RWY 32/14 PP000
    SPME 091800Z 35009KT 9999 SCT015 26/21 Q1013 RMK BIRD HAZARD RWY 32/14 PP000
  • SPMS: Yurimaguas, Peru
    SPMS 091500Z 36005KT 9999 FEW020 SCT100 29/23 Q1016 RMK BIRD HAZARD RWY 09/27 PP000
    SPMS 091600Z 33003KT 9999 FEW020 SCT100 29/24 Q1015 RMK BIRD HAZARD RWY 09/27 PP000
    SPMS 091700Z 35003KT 9999 FEW020 SCT100 30/24 Q1015 RMK BIRD HAZARD RWY 09/27 PP000
    SPMS 091800Z 05004KT 9999 FEW020 SCT100 31/24 Q1014 RMK BIRD HAZARD RWY 09/27 PP000
  • SPSO: Pisco, Peru
    SPSO 091500Z 26005KT 8000 OVC014 18/16 Q1018 RMK BIRD HAZARD RWY 22/04 PP000
    SPSO 091600Z 33007KT 2000 -DZ BR BKN005 OVC009 17/16 Q1017 RMK BIRD HAZARD RWY 22/04 PPTRZ
    SPSO 091700Z 33006KT 300V360 4000 BR BKN005 OVC015 17/16 Q1016 RMK BIRD HAZARD RWY 22/04 PP000
    SPSO 091800Z 28006KT 250V310 6000 SCT006 OVC020 18/16 Q1016 RMK BR BIRD HAZARD RWY 22/04 PP000
  • SPTU: Puerto Maldonado, Peru
    SPTU 091500Z 31003KT 260V010 CAVOK 29/21 Q1015 RMK BIRD HAZARD RWY 01/19 PP000
    SPTU 091600Z 31005KT 250V360 CAVOK 30/22 Q1014 RMK BIRD HAZARD RWY 01/19 PP000
    SPTU 091700Z 29005KT 210V360 9999 SCT025 32/21 Q1013 RMK BIRD HAZARD RWY 01/19 PP000
    SPTU 091800Z 31006KT 250V360 9999 SCT025 31/21 Q1012 RMK BIRD HAZARD RWY 01/19 PP000
  • SPUR: Piura, Peru
    SPUR 091500Z 16009KT 9999 OVC011 20/15 Q1018 RMK BIRD HAZARD RWY 19/01 PP000
    SPUR 091600Z 19007KT 9999 OVC011 20/15 Q1017 RMK BIRD HAZARD RWY 19/01 PP000
    SPUR 091700Z 16004KT 9999 BKN015 21/15 Q1016 RMK BIRD HAZARD RWY 19/01 PP000
    SPUR 091800Z 16006KT 9999 BKN015 24/16 Q1016 RMK BIRD HAZARD RWY 19/01 PP000
  • SPYL: Talara, Peru
    SPYL 091500Z /////KT CAVOK 22/17 Q1016 RMK BIRD HAZARD RWY 17/35 PP000
    SPYL 091600Z /////KT CAVOK 24/18 Q1015 RMK BIRD HAZARD RWY 17/35 PP000
    SPYL 091700Z /////KT CAVOK 24/18 Q1015 RMK BIRD HAZARD RWY 17/35 PP000
    SPYL 091800Z /////KT CAVOK 25/18 Q1014 RMK BIRD HAZARD RWY 17/35 PP000
  • SPZO: Cuzco, Peru
    SPZO 091500Z 04004KT 360V100 9999 NSC 13/M10 Q1035 NOSIG RMK BIRD HAZARD RWY 10/28 PP000
    SPZO 091530Z VRB03KT 9999 NSC 14/M11 Q1035 NOSIG RMK BIRD HAZARD RWY 10/28
    SPZO 091600Z 05004KT 010V160 9999 NSC 15/M10 Q1034 NOSIG RMK BIRD HAZARD RWY 10/28 PP000
    SPZO 091630Z VRB03KT 9999 NSC 17/M09 Q1033 NOSIG RMK BIRD HAZARD RWY 10/28
    SPZO 091700Z VRB04KT 9999 NSC 18/M11 Q1033 NOSIG RMK BIRD HAZARD RWY 10/28 PP000
    SPZO 091730Z 01004KT 310V100 9999 NSC 20/M10 Q1032 NOSIG RMK BIRD HAZARD RWY 10/28
    SPZO 091800Z VRB02KT 9999 NSC 20/M13 Q1031 NOSIG RMK BIRD HAZARD RWY 10/28 PP000
    SPZO 091830Z VRB04KT 9999 NSC 21/M14 Q1030 NOSIG RMK BIRD HAZARD RWY 10/28
0 stations reporting volcanic ash

1 station reporting ice crystals/diamond dust

  • NZSP: Amundsen-Scott Stn, Antarctica
    NZSP 091750Z 02009KT 9999 IC OVC030 M56/ A2848 RMK CLN AIR 01007KT ALL WNDS GRID
0 stations reporting blowing spray

10 stations reporting dust or duststorm

  • DABS: Tebessa, Algeria
    DABS 091448Z 19026G42KT 5000 BLDU FEW033 SCT200 36/// Q1011
    DABS 091500Z 20016G33KT 5000 BLDU FEW033 SCT200 36/// Q1011
  • DAOR: Bechar, Algeria
    DAOR 091500Z 26011KT 4000 DU NSC 35/M01 Q1010
    DAOR 091600Z 27007KT 4000 DU NSC 35/M01 Q1010
  • DRZA: Agadez, Niger
    DRZA 091500Z 35007KT 4500 DU SCT040 44/08 Q1007
    DRZA 091600Z 02013KT 4500 DU SCT040 FEW043CB 43/06 Q1007
    DRZA 091700Z 11010KT 4500 DU SCT040 41/10 Q1007
  • FTTJ: Ndjamena, Chad
    FTTJ 091700Z 26010KT 4000 DU FEW050CB 39/20 Q1004 NOSIG
    FTTJ 091800Z 18008KT 4000 DU FEW050CB 36/19 Q1005 NOSIG
  • GQPA: Atar, Mauritania
    GQPA 091800Z 04006KT 6000 DU NSC 43/12 Q1010
  • MMPE: Puerto Penasco International, Mexico
    MMPE 091509Z RTD 14018KT 10SM FEW200 29/11 A2981 RMK 8/005 HZY BLDU RTS
    MMPE 091540Z 12018KT 10SM FEW200 30/12 A2982 RMK 8/005 HZY BLDU
    MMPE 091640Z 15019KT 10SM FEW200 30/13 A2982 RMK 8/005 BLDU
    MMPE 091740Z 15020KT 10SM SCT200 32/10 A2983 RMK 8/001 HZY BLDU
  • OERS: UNKNOWN,
    OERS 091500Z 31015KT 5000 BLDU NSC 42/01 Q1002 NOSIG
  • OINE: Kalaleh, Iran
    OINE 091600Z 22006KT 3000 DU NSC 31/17 Q1008
    OINE 091700Z 19006KT 4000 DU NSC 29/16 Q1009
    OINE 091800Z 22006KT 4000 DU NSC 28/15 Q1010
  • OINK: Gonbad Ghabus, Iran
    OINK 091700Z 23004KT 5000 DU NSC 30/13 Q1007 A2975
    OINK 091800Z 24004KT 5000 DU NSC 30/11 Q1008 A2978
  • ORNI: Al-ashraf, Iraq
    ORNI 091600Z 16008KT 3000 DU FEW025CB BKN040 45/04 Q0997
    ORNI 091800Z 06006KT 5000 DU FEW040 40/07 Q0997
1 station reporting sand or sandstorm

  • DAUO: El Oued, Algeria
    DAUO 091508Z 32018KT 2000 BLSA FEW046 SCT100 40/06 Q1005
    DAUO 091700Z 04004KT 010V070 4000 SA FEW046 SCT100 38/06 Q1005
    DAUO 091800Z 20011KT 4000 SA FEW040 SCT200 41/04 Q1004
0 stations reporting well-developed dust/sand whirls

12 stations reporting smoke

  • CYCQ: Chetwynd Airport, Canada
    CYCQ 091500Z 09003KT 15SM OVC030 08/04 A3013 RMK SC8 FU DIST MT W SLP223
    CYCQ 091600Z VRB02KT 15SM FEW030 OVC035 09/04 A3012 RMK CU1SC7 FU DIST MT W SLP217
    CYCQ 091700Z 03003KT 360V070 15SM FEW030 OVC035 09/04 A3010 RMK CU2SC6 FU DIST MT W SLP212
    CYCQ 091800Z 06006KT 320V080 15SM BKN035 OVC090 10/04 A3008 RMK SC6AC2 FU DIST MT W SLP206
  • CZFA: Faro Airport, Canada
    CZFA 091500Z CCA 12005KT 050V150 30SM FEW120 14/03 A3000 RMK AC1 AC TR FU SLP168 DENSITY ALT 2700FT
    CZFA 091600Z 14009G17KT 30SM FEW120 17/04 A2998 RMK AC1 AC TR FU SLP160 DENSITY ALT 3100FT
    CZFA 091700Z 10007KT 060V150 30SM FEW120 19/03 A2996 RMK AC1 AC TR FU SLP153 DENSITY ALT 3300FT
  • KTLH: Tallahassee, FL, United States
    KTLH 091742Z 31005KT 10SM FEW000 FEW250 35/14 A2990 RMK AO2 FU FEW000 T03500144
    KTLH 091753Z VRB03KT 10SM FEW000 FEW250 35/15 A2990 RMK AO2 SLP122 FU FEW000 T03500150 10356 20222 58016
  • MMCB: Cuernavaca, Mor., Mexico
    MMCB 091601Z RTD 08002KT 3SM FU HZ SCT250 27/14 A3011 RMK 8/001
    MMCB 091640Z 00000KT 3SM FU HZ FEW250 28/15 A3010 RMK 8/001
    MMCB 091745Z RTD 16003KT 3SM FU HZ FEW250 30/14 A3006 RMK 8/001 AC
  • MMGL: Don Miguel / Guadalaj, Mexico
    MMGL 091541Z 25003KT 7SM SKC 26/10 A3019 RMK HZY FU S/
  • MMVA: Villahermosa, Mexico
    MMVA 091447Z 00000KT 1 1/2SM FU HZ SCT070 30/26 A2984 RMK SLP103 52003 967 8/010
    MMVA 091541Z 26006KT 1 1/2SM FU HZ SCT070 32/26 A2984 RMK 8/010
    MMVA 091640Z 33004KT 1 1/2SM FU HZ SCT070 34/26 A2984 RMK 8/010
    MMVA 091744Z 29008KT 2 1/2SM FU HZ SCT070 35/25 A2984 RMK SLP103 54000 967 8/010
  • PABI: Delta Junction/Ft Greely, AK, United States
    PABI 091453Z 11006KT 10SM SCT140 OVC200 18/M01 A2979 RMK AO2 SLP080 CIG THN LGT FU ALQDS ACSL DSNT NW-E T01781006 53003
    PABI 091553Z 19013G21KT 10SM SCT140 OVC200 20/M03 A2979 RMK AO2 SLP079 CIG THN LGT FU ALQDS ACSL DSNT N-NE T02001033
    PABI 091653Z 18014G23KT 10SM SCT140 OVC200 21/M03 A2979 RMK AO2 PK WND 17027/1621 SLP079 CIG THN LGT FU ALQDS ACSL DSNT NE-E T02061033
    PABI 091753Z 18014G24KT 10SM SCT140 OVC200 21/M03 A2978 RMK AO2 PK WND 18027/1737 SLP078 CIG THN LGT FU ALQDS ACSL DSNT NE-SE T02111028 10211 20106 58002
  • PABT: Bettles, Bettles Airport, AK, United States
    PABT 091653Z 05008G22KT 010V120 10SM FEW080 SCT150 BKN240 19/06 RMK ALT2982 SLP101 SCT150 IS FU T01940061
    PABT 091753Z 06008G19KT 010V140 10SM FEW080 SCT120 BKN200 21/07 RMK ALT2981 SLP097 SCT120 IS FU T02110067 10211 20144 58010
  • PAEI: Fairbanks, Eielson AFB, AK, United States
    PAEI 091538Z 23004KT 3SM FU SCT150 15/03 A2971
    PAEI 091538Z 23004KT 3SM FU SCT150 15/03 A2971 RMK AO2A SLP062
    PAEI 091555Z 22003KT 2SM FU BKN150 16/03 A2971
    PAEI 091555Z 22003KT 2SM FU BKN150 16/03 A2971 RMK AO2A SLP062 T01580032
    PAEI 091635Z COR 00000KT 2 1/2SM FU SCT150 17/04 A2971
    PAEI 091635Z COR 00000KT 2 1/2SM FU SCT150 17/04 A2971 RMK AO2A SLP062 $ COR 1650
    PAEI 091655Z 00000KT 2SM FU BKN160 18/04 A2970
    PAEI 091655Z 00000KT 2SM FU BKN160 18/04 A2970 RMK AO2A SLP058 T01750041 $
    PAEI 091725Z COR 06003KT 2 3/4SM FU OVC160 19/05 A2970
    PAEI 091725Z COR 06003KT 2 3/4SM FU OVC160 19/05 A2970 RMK AO2A SLP058 $ COR 1739
    PAEI 091735Z 00000KT 3SM FU OVC150 19/05 A2970
    PAEI 091735Z 00000KT 3SM FU OVC150 19/05 A2970 RMK AO2A SLP058 $
    PAEI 091755Z 00000KT 5SM FU BKN150 BKN170 20/06 A2970
    PAEI 091755Z 00000KT 5SM FU BKN150 BKN170 20/06 A2970 RMK AO2A SLP058 T01960063 10196 20115 58003 $
    PAEI 091815Z 00000KT 7SM FU FEW140 SCT170 21/04 A2970
    PAEI 091815Z 00000KT 7SM FU FEW140 SCT170 21/04 A2970 RMK AO2A SLP058 $
  • PAOR: Northway, Northway Airport, AK, United States
    PAOR 091453Z AUTO 00000KT 8SM FU CLR 12/04 A2980
    PAOR 091453Z AUTO 00000KT 8SM FU CLR 12/04 A2980 RMK AO2 SLP084 6//// T01220044 51007 TSNO PNO $
    PAOR 091509Z AUTO 22003KT 1 3/4SM HZ FU CLR 13/05 A2980
    PAOR 091509Z AUTO 22003KT 1 3/4SM HZ FU CLR 13/05 A2980 RMK AO2 VIS 3/4V4 T01280050 TSNO PNO $
    PAOR 091523Z AUTO 00000KT 3/4SM HZ FU CLR 14/05 A2980
    PAOR 091523Z AUTO 00000KT 3/4SM HZ FU CLR 14/05 A2980 RMK AO2 T01390050 TSNO PNO $
    PAOR 091533Z AUTO 00000KT 1SM HZ FU CLR 14/05 A2980
    PAOR 091533Z AUTO 00000KT 1SM HZ FU CLR 14/05 A2980 RMK AO2 T01390050 TSNO PNO $
    PAOR 091540Z AUTO 00000KT 1/2SM HZ FU CLR 15/06 A2980
    PAOR 091540Z AUTO 00000KT 1/2SM HZ FU CLR 15/06 A2980 RMK AO2 VIS 1/4V2 1/2 T01500061 TSNO PNO $
    PAOR 091553Z AUTO 00000KT 3/4SM HZ FU CLR 16/05 A2980
    PAOR 091553Z AUTO 00000KT 3/4SM HZ FU CLR 16/05 A2980 RMK AO2 SLP082 T01560050 TSNO PNO $
    PAOR 091610Z AUTO 32003KT 1 1/2SM HZ FU CLR 17/06 A2979
    PAOR 091610Z AUTO 32003KT 1 1/2SM HZ FU CLR 17/06 A2979 RMK AO2 VIS 3/4V2 1/2 T01670056 TSNO PNO $
    PAOR 091645Z 00000KT 3SM HZ FU CLR 18/03 A2979
    PAOR 091645Z 00000KT 3SM HZ FU CLR 18/03 A2979 RMK AO2 FU N-E T01780033 PNO $
    PAOR 091653Z VRB03KT 5SM HZ FU CLR 18/03 A2980
    PAOR 091653Z VRB03KT 5SM HZ FU CLR 18/03 A2980 RMK AO2 SLP081 FU N-E T01830033 PNO $
    PAOR 091753Z 00000KT 3SM HZ FU SCT120 20/01 A2979
    PAOR 091753Z 00000KT 3SM HZ FU SCT120 20/01 A2979 RMK AO2 SLP078 FU ALQDS 6//// T02000006 10200 20094 58003 PNO $
  • UAAA: Almaty, Kazakhstan
    UAAA 091500Z 19002MPS 5000 FU SCT100 BKN200 26/12 Q1009 NOSIG
    UAAA 091530Z 17002MPS 5000 FU SCT100 BKN200 24/13 Q1009 NOSIG
    UAAA 091600Z 20001MPS 5000 FU SCT100 BKN200 24/13 Q1009 NOSIG
  • UTTT: Tashkent, Uzbekistan
    UTTT 091700Z 08008KT 4000 FU NSC 28/12 Q1009 R08R/CLRD70 NOSIG


Stations falling into 5 or more extreme categories

Stations falling into 4 extreme categories

Stations falling into 3 extreme categories

Stations falling into 2 extreme categories

  • CYOW: Ottawa Int'L. Ont., Canada
        Precipitation Type/Intensity, Thunderstorm
  • CYUL: Montreal / Dorval International, Que, Canada
        Precipitation Type/Intensity, Thunderstorm
  • DABS: Tebessa, Algeria
        Wind, Dust/Duststorm
  • DAUO: El Oued, Algeria
        Temperature, Sand/Sandstorm
  • DRZA: Agadez, Niger
        Temperature, Dust/Duststorm
  • EFPO: Pori, Finland
        Precipitation Type/Intensity, Thunderstorm
  • ENRY: Rygge, Norway
        Pressure, Precipitation Type/Intensity
  • FTTJ: Ndjamena, Chad
        Temperature, Dust/Duststorm
  • GQPA: Atar, Mauritania
        Temperature, Dust/Duststorm
  • K2I0: Madisonville, KY, United States
        Precipitation Type/Intensity, Hourly Precip Total
  • K4A6: Scottsboro, AL, United States
        Temperature, Dewpoint
  • KHST: Homestead AFB, FL, United States
        Dewpoint, Precipitation Type/Intensity
  • KK70: Key Largo, FL, United States
        Dewpoint, Thunderstorm
  • LHPA: Papa, Hungary
        Wind, Thunderstorm
  • LSGG: Geneve-Cointrin, Switzerland
        Hail, Thunderstorm
  • MMVA: Villahermosa, Mexico
        Dewpoint, Smoke
  • MPTO: Tocumen, Panama
        Dewpoint, Thunderstorm
  • NZSP: Amundsen-Scott Stn, Antarctica
        Temperature, Ice Crystals/Diamond Dust
  • OERS: UNKNOWN,
        Temperature, Dust/Duststorm
  • ORNI: Al-ashraf, Iraq
        Temperature, Dust/Duststorm
  • PKWA: Kwajalein, Marshall Islands
        Dewpoint, Wind
  • SBSL: Sao Luiz Aeroporto, Brazil
        Dewpoint, Thunderstorm
  • SPHY: Andahuayla, Peru
        Pressure, Bird Hazard
  • SPJJ: Jauja, Peru
        Pressure, Bird Hazard
  • SPJL: Juliaca, Peru
        Pressure, Bird Hazard
  • SPZO: Cuzco, Peru
        Pressure, Bird Hazard
  • SYCJ: Georgetown/Cheddi Jagan Arpt, Guyana
        Dewpoint, Thunderstorm
  • VABB: Bombay / Santacruz, India
        Dewpoint, Thunderstorm
  • VOTV: Thiruvananthapuram, India
        Dewpoint, Precipitation Type/Intensity
  • WMKD: Kuantan, Malaysia
        Dewpoint, Thunderstorm
  • WMKP: Penang / Bayan Lepas, Malaysia
        Dewpoint, Thunderstorm
  • ZJSY: Sanya/Fenghuang, China
        Dewpoint, Thunderstorm


93 unidentified stations (out of a total of 165 documented unknown stations)

  • ENUN (OLD)
  • EQYE (OLD)
  • EQYF (OLD)
  • EQYT (OLD)
  • EQYV (OLD)
  • FCOD (NEW)
  • HESX (NEW)
  • K0D8 (NEW)
  • K0W3 (NEW)
  • K10U (NEW)
  • K1B9 (NEW)
  • K1D8 (NEW)
  • K1K8 (NEW)
  • K2M8 (NEW)
  • K2R2 (NEW)
  • K3K7 (NEW)
  • K3W7 (NEW)
  • K42A (NEW)
  • K49B (NEW)
  • K4B8 (NEW)
  • K60R (NEW)
  • K8V7 (NEW)
  • K9Y1 (NEW)
  • KACZ (NEW)
  • KANR (NEW)
  • KBFA (NEW)
  • KC08 (NEW)
  • KCPP (NEW)
  • KCSB (NEW)
  • KD09 (NEW)
  • KDRP (NEW)
  • KE01 (NEW)
  • KE57 (NEW)
  • KE77 (NEW)
  • KETO (NEW)
  • KF95 (NEW)
  • KFOM (NEW)
  • KGDK (NEW)
  • KHVC (NEW)
  • KI40 (NEW)
  • KI95 (NEW)
  • KK83 (NEW)
  • KMCZ (NEW)
  • KMKQ (NEW)
  • KN79 (NEW)
  • KOYE (NEW)
  • KQA8 (OLD)
  • KQAL (OLD)
  • KQB3 (OLD)
  • KQD3 (OLD)
  • KQEK (OLD)
  • KQGE (OLD)
  • KQHB (OLD)
  • KQHC (OLD)
  • KQJQ (NEW)
  • KQNE (NEW)
  • KQOA (OLD)
  • KQOO (NEW)
  • KQRD (OLD)
  • KQRP (NEW)
  • KQX2 (OLD)
  • KQXH (OLD)
  • KS12 (NEW)
  • KSBX (NEW)
  • KTQV (OLD)
  • KU64 (NEW)
  • KUWL (NEW)
  • KVGN (NEW)
  • KXIF (OLD)
  • LETU (OLD)
  • LIRY (NEW)
  • LRBV (NEW)
  • LTFO (OLD)
  • MGMT (OLD)
  • MGTU (OLD)
  • MMGA (NEW)
  • NFVB (NEW)
  • NZQN (NEW)
  • OEAR (OLD)
  • OEMN (NEW)
  • OERS (NEW)
  • OKKK (NEW)
  • PACX (NEW)
  • PANU (NEW)
  • PAPE (NEW)
  • PFKO (NEW)
  • PFTO (NEW)
  • PFZK (NEW)
  • UBBZ (NEW)
  • VDSA (NEW)
  • VOGA (NEW)
  • WILL (NEW)
  • YBSU (NEW)